createdAt,value
2019-02-12T00:01:09.822Z,11.60
2019-02-12T00:03:57.729Z,11.87
2019-02-12T00:06:45.589Z,15.63
2019-02-12T00:09:33.439Z,11.97
2019-02-12T00:12:21.140Z,10.67
2019-02-12T00:15:09.194Z,10.63
2019-02-12T00:17:56.774Z,13.37
2019-02-12T00:20:44.660Z,15.13
2019-02-12T00:23:32.509Z,15.90
2019-02-12T00:26:20.571Z,11.17
2019-02-12T00:29:08.449Z,11.23
2019-02-12T00:31:56.257Z,15.07
2019-02-12T00:34:43.897Z,11.37
2019-02-12T00:37:31.746Z,14.30
2019-02-12T00:40:19.661Z,16.40
2019-02-12T00:43:07.793Z,13.90
2019-02-12T00:45:55.573Z,14.40
2019-02-12T00:48:43.469Z,15.97
2019-02-12T00:51:31.369Z,17.43
2019-02-12T00:54:19.481Z,14.00
2019-02-12T00:57:07.076Z,15.60
2019-02-12T00:59:55.055Z,14.60
2019-02-12T01:02:42.662Z,17.47
2019-02-12T01:05:30.556Z,12.57
2019-02-12T01:08:18.493Z,17.90
2019-02-12T01:11:06.489Z,13.07
2019-02-12T01:13:54.326Z,16.90
2019-02-12T01:16:42.188Z,14.17
2019-02-12T01:19:30.038Z,16.60
2019-02-12T01:22:17.920Z,15.73
2019-02-12T01:25:07.209Z,14.97
2019-02-12T01:27:55.352Z,18.13
2019-02-12T01:30:42.939Z,16.43
2019-02-12T01:33:30.857Z,15.27
2019-02-12T01:36:18.609Z,21.40
2019-02-12T01:39:09.416Z,18.80
2019-02-12T01:41:57.394Z,19.07
2019-02-12T01:44:45.261Z,14.80
2019-02-12T01:47:32.838Z,17.53
2019-02-12T01:50:20.993Z,16.90
2019-02-12T01:53:08.768Z,17.63
2019-02-12T01:55:56.625Z,22.23
2019-02-12T01:58:44.253Z,13.57
2019-02-12T02:01:32.201Z,14.27
2019-02-12T02:04:19.785Z,12.13
2019-02-12T02:07:07.905Z,14.57
2019-02-12T02:09:55.681Z,16.63
2019-02-12T02:12:43.561Z,17.50
2019-02-12T02:15:31.164Z,14.83
2019-02-12T02:18:18.894Z,17.73
2019-02-12T02:21:06.779Z,18.57
2019-02-12T02:23:54.850Z,17.67
2019-02-12T02:26:42.479Z,20.10
2019-02-12T02:29:30.253Z,19.37
2019-02-12T02:32:18.101Z,13.17
2019-02-12T02:35:06.766Z,14.97
2019-02-12T02:37:54.639Z,14.50
2019-02-12T02:40:42.339Z,13.17
2019-02-12T02:43:30.150Z,15.67
2019-02-12T02:46:18.217Z,19.10
2019-02-12T02:49:05.842Z,14.73
2019-02-12T02:51:54.255Z,15.03
2019-02-12T02:54:42.257Z,15.37
2019-02-12T02:57:30.257Z,17.70
2019-02-12T03:00:18.058Z,18.93
2019-02-12T03:03:05.729Z,20.07
2019-02-12T03:05:53.477Z,14.03
2019-02-12T03:08:41.280Z,19.33
2019-02-12T03:11:29.161Z,22.03
2019-02-12T03:14:17.046Z,18.33
2019-02-12T03:17:04.698Z,20.23
2019-02-12T03:19:52.375Z,18.60
2019-02-12T03:22:39.926Z,17.70
2019-02-12T03:25:27.925Z,23.87
2019-02-12T03:28:15.885Z,21.63
2019-02-12T03:31:03.741Z,18.40
2019-02-12T03:33:51.539Z,18.53
2019-02-12T03:36:39.450Z,27.07
2019-02-12T03:39:27.412Z,22.00
2019-02-12T03:42:15.251Z,22.57
2019-02-12T03:45:03.963Z,22.60
2019-02-12T03:47:51.874Z,20.73
2019-02-12T03:50:39.497Z,22.47
2019-02-12T03:53:27.309Z,17.23
2019-02-12T03:56:14.965Z,17.57
2019-02-12T03:59:02.717Z,19.27
2019-02-12T04:01:50.874Z,25.07
2019-02-12T04:04:38.396Z,16.93
2019-02-12T04:07:26.312Z,19.47
2019-02-12T04:10:14.369Z,20.13
2019-02-12T04:13:02.713Z,17.53
2019-02-12T04:15:50.729Z,20.43
2019-02-12T04:18:38.709Z,17.63
2019-02-12T04:21:26.454Z,15.20
2019-02-12T04:24:14.465Z,18.97
2019-02-12T04:27:02.110Z,14.27
2019-02-12T04:29:49.905Z,14.47
2019-02-12T04:32:37.657Z,17.37
2019-02-12T04:35:25.481Z,18.33
2019-02-12T04:38:13.406Z,17.47
2019-02-12T04:41:01.240Z,27.37
2019-02-12T04:43:48.996Z,17.63
2019-02-12T04:46:36.952Z,22.87
2019-02-12T04:49:24.877Z,17.50
2019-02-12T04:52:12.497Z,20.13
2019-02-12T04:55:00.044Z,17.80
2019-02-12T04:57:47.902Z,21.97
2019-02-12T05:00:35.606Z,22.63
2019-02-12T05:03:23.367Z,20.77
2019-02-12T05:06:11.350Z,23.03
2019-02-12T05:09:11.129Z,19.33
2019-02-12T05:11:59.053Z,20.70
2019-02-12T05:14:46.938Z,16.50
2019-02-12T05:17:35.048Z,20.70
2019-02-12T05:20:22.896Z,19.87
2019-02-12T05:23:10.619Z,18.43
2019-02-12T05:25:58.303Z,22.43
2019-02-12T05:28:46.382Z,20.60
2019-02-12T05:31:34.333Z,22.00
2019-02-12T05:34:22.133Z,19.83
2019-02-12T05:37:10.169Z,18.30
2019-02-12T05:39:57.891Z,19.07
2019-02-12T05:42:45.512Z,25.63
2019-02-12T05:45:33.411Z,21.93
2019-02-12T05:48:21.322Z,21.63
2019-02-12T05:51:09.069Z,17.70
2019-02-12T05:53:56.668Z,18.77
2019-02-12T05:56:44.611Z,25.97
2019-02-12T05:59:32.458Z,19.73
2019-02-12T06:02:22.608Z,24.07
2019-02-12T06:05:11.077Z,21.13
2019-02-12T06:07:58.793Z,23.77
2019-02-12T06:10:46.759Z,24.03
2019-02-12T06:13:34.910Z,25.53
2019-02-12T06:16:22.797Z,20.17
2019-02-12T06:19:11.628Z,25.37
2019-02-12T06:21:59.734Z,22.60
2019-02-12T06:24:47.632Z,21.73
2019-02-12T06:27:35.200Z,24.13
2019-02-12T06:30:23.150Z,20.80
2019-02-12T06:33:11.078Z,21.67
2019-02-12T06:35:59.101Z,19.90
2019-02-12T06:38:46.710Z,23.07
2019-02-12T06:41:34.316Z,22.20
2019-02-12T06:44:22.317Z,29.10
2019-02-12T06:47:10.343Z,26.80
2019-02-12T06:49:58.017Z,26.17
2019-02-12T06:52:45.916Z,28.00
2019-02-12T06:55:33.578Z,28.97
2019-02-12T06:58:21.369Z,25.10
2019-02-12T07:01:09.222Z,22.00
2019-02-12T07:03:58.394Z,22.07
2019-02-12T07:06:55.125Z,32.23
2019-02-12T07:09:44.123Z,31.43
2019-02-12T07:12:43.814Z,25.93
2019-02-12T07:15:32.262Z,23.40
2019-02-12T07:18:28.372Z,26.17
2019-02-12T07:21:41.752Z,23.47
2019-02-12T07:24:35.457Z,22.03
2019-02-12T07:27:47.467Z,30.07
2019-02-12T07:30:48.500Z,30.67
2019-02-12T07:33:59.066Z,35.43
2019-02-12T07:37:11.170Z,35.43
2019-02-12T07:40:10.975Z,40.77
2019-02-12T07:43:19.801Z,35.67
2019-02-12T07:46:10.644Z,28.40
2019-02-12T07:49:04.489Z,39.20
2019-02-12T07:52:06.732Z,28.70
2019-02-12T07:55:15.574Z,30.53
2019-02-12T07:58:18.773Z,31.93
2019-02-12T08:01:29.235Z,34.83
2019-02-12T08:04:50.630Z,25.53
2019-02-12T08:07:53.306Z,24.37
2019-02-12T08:10:49.816Z,22.37
2019-02-12T08:13:57.507Z,23.63
2019-02-12T08:16:51.798Z,29.77
2019-02-12T08:19:45.465Z,25.93
2019-02-12T08:22:55.192Z,26.77
2019-02-12T08:25:57.658Z,19.77
2019-02-12T08:28:57.699Z,22.47
2019-02-12T08:32:09.910Z,21.47
2019-02-12T08:35:27.880Z,57.80
2019-02-12T08:38:24.596Z,22.87
2019-02-12T08:41:20.999Z,19.63
2019-02-12T08:44:23.977Z,21.17
2019-02-12T08:47:35.001Z,21.67
2019-02-12T08:50:48.386Z,22.87
2019-02-12T08:53:50.923Z,23.17
2019-02-12T08:56:48.386Z,19.43
2019-02-12T08:59:55.098Z,21.67
2019-02-12T09:02:48.793Z,18.17
2019-02-12T09:05:40.046Z,19.27
2019-02-12T09:08:31.067Z,19.23
2019-02-12T09:11:36.622Z,16.27
2019-02-12T09:14:28.069Z,16.73
2019-02-12T09:17:31.233Z,16.47
2019-02-12T09:20:43.391Z,16.07
2019-02-12T09:23:59.958Z,20.77
2019-02-12T09:26:51.084Z,15.83
2019-02-12T09:29:51.979Z,15.90
2019-02-12T09:33:01.154Z,11.93
2019-02-12T09:36:22.028Z,11.20
2019-02-12T09:39:15.733Z,11.60
2019-02-12T09:42:06.685Z,14.70
2019-02-12T09:45:03.806Z,10.90
2019-02-12T09:47:54.917Z,14.60
2019-02-12T09:50:57.602Z,9.30
2019-02-12T09:53:54.510Z,11.47
2019-02-12T09:57:00.476Z,13.57
2019-02-12T09:59:56.816Z,11.33
2019-02-12T10:03:06.342Z,13.43
2019-02-12T10:06:21.491Z,11.80
2019-02-12T10:09:08.342Z,10.70
2019-02-12T10:12:11.671Z,12.53
2019-02-12T10:15:20.990Z,10.97
2019-02-12T10:18:33.294Z,9.57
2019-02-12T10:21:36.236Z,12.37
2019-02-12T10:24:36.094Z,10.17
2019-02-12T10:27:49.601Z,8.20
2019-02-12T10:30:49.425Z,10.23
2019-02-12T10:33:37.346Z,8.33
2019-02-12T10:36:25.353Z,7.30
2019-02-12T10:39:13.542Z,11.63
2019-02-12T10:42:01.196Z,8.97
2019-02-12T10:44:48.962Z,11.07
2019-02-12T10:47:36.754Z,12.93
2019-02-12T10:50:25.016Z,12.47
2019-02-12T10:53:12.953Z,7.50
2019-02-12T10:56:00.935Z,7.43
2019-02-12T10:58:48.898Z,10.10
2019-02-12T11:01:37.073Z,8.90
2019-02-12T11:04:24.953Z,10.97
2019-02-12T11:07:12.612Z,8.83
2019-02-12T11:10:00.588Z,10.60
2019-02-12T11:12:48.619Z,8.73
2019-02-12T11:15:36.592Z,8.13
2019-02-12T11:18:24.445Z,9.40
2019-02-12T11:21:12.530Z,12.63
2019-02-12T11:24:00.515Z,8.50
2019-02-12T11:26:48.293Z,9.97
2019-02-12T11:29:36.232Z,11.00
2019-02-12T11:32:24.226Z,4.53
2019-02-12T11:35:13.016Z,9.07
2019-02-12T11:38:00.657Z,6.67
2019-02-12T11:40:48.602Z,10.83
2019-02-12T11:43:36.465Z,6.73
2019-02-12T11:46:24.556Z,9.57
2019-02-12T11:49:12.382Z,5.03
2019-02-12T11:52:00.193Z,9.90
2019-02-12T11:54:48.112Z,9.00
2019-02-12T11:57:36.079Z,8.60
2019-02-12T12:00:28.438Z,8.13
2019-02-12T12:03:16.300Z,7.60
2019-02-12T12:06:03.882Z,8.90
2019-02-12T12:08:55.125Z,8.30
2019-02-12T12:11:43.078Z,11.33
2019-02-12T12:14:31.321Z,12.47
2019-02-12T12:17:19.234Z,8.67
2019-02-12T12:20:12.622Z,6.30
2019-02-12T12:23:00.360Z,10.43
2019-02-12T12:25:48.179Z,8.70
2019-02-12T12:28:36.221Z,6.20
2019-02-12T12:31:24.135Z,6.03
2019-02-12T12:34:11.866Z,6.93
2019-02-12T12:36:59.794Z,6.07
2019-02-12T12:39:48.052Z,8.97
2019-02-12T12:42:35.982Z,6.87
2019-02-12T12:45:23.909Z,4.80
2019-02-12T12:48:12.059Z,7.50
2019-02-12T12:50:59.732Z,4.67
2019-02-12T12:53:47.417Z,5.63
2019-02-12T12:56:35.085Z,7.60
2019-02-12T12:59:23.037Z,6.80
2019-02-12T13:02:11.268Z,5.40
2019-02-12T13:04:59.174Z,9.53
2019-02-12T13:07:47.098Z,5.70
2019-02-12T13:10:35.102Z,7.73
2019-02-12T13:13:22.800Z,16.90
2019-02-12T13:16:10.681Z,31.43
2019-02-12T13:18:58.681Z,12.90
2019-02-12T13:21:46.344Z,8.50
2019-02-12T13:24:34.141Z,6.23
2019-02-12T13:27:21.754Z,7.80
2019-02-12T13:30:12.786Z,5.73
2019-02-12T13:33:00.446Z,5.57
2019-02-12T13:35:48.120Z,4.13
2019-02-12T13:38:35.777Z,4.63
2019-02-12T13:41:23.689Z,7.43
2019-02-12T13:44:11.285Z,7.30
2019-02-12T13:46:59.412Z,8.70
2019-02-12T13:49:47.322Z,5.87
2019-02-12T13:52:35.257Z,8.37
2019-02-12T13:55:23.128Z,6.00
2019-02-12T13:58:11.067Z,5.07
2019-02-12T14:00:59.034Z,3.73
2019-02-12T14:03:46.952Z,6.90
2019-02-12T14:06:34.684Z,5.33
2019-02-12T14:09:22.648Z,4.07
2019-02-12T14:12:10.328Z,5.90
2019-02-12T14:14:58.188Z,7.67
2019-02-12T14:17:46.213Z,7.33
2019-02-12T14:20:34.324Z,9.57
2019-02-12T14:23:22.244Z,4.07
2019-02-12T14:26:10.153Z,3.53
2019-02-12T14:28:58.013Z,5.90
2019-02-12T14:31:52.868Z,8.47
2019-02-12T14:34:35.274Z,8.83
2019-02-12T14:37:23.215Z,9.03
2019-02-12T14:40:13.244Z,7.13
2019-02-12T14:43:01.124Z,6.03
2019-02-12T14:45:49.703Z,6.10
2019-02-12T14:48:37.404Z,6.30
2019-02-12T14:51:25.332Z,11.97
2019-02-12T14:54:13.333Z,7.10
2019-02-12T14:57:01.404Z,7.30
2019-02-12T14:59:49.061Z,7.83
2019-02-12T15:02:36.689Z,12.30
2019-02-12T15:05:24.653Z,7.90
2019-02-12T15:08:12.549Z,8.43
2019-02-12T15:11:00.265Z,11.77
2019-02-12T15:13:48.238Z,6.47
2019-02-12T15:16:36.212Z,7.03
2019-02-12T15:19:23.909Z,4.93
2019-02-12T15:22:11.782Z,9.97
2019-02-12T15:24:59.718Z,10.93
2019-02-12T15:27:47.562Z,8.43
2019-02-12T15:30:35.374Z,8.37
2019-02-12T15:33:22.972Z,8.57
2019-02-12T15:36:10.862Z,5.13
2019-02-12T15:38:58.909Z,9.67
2019-02-12T15:41:47.009Z,5.50
2019-02-12T15:44:35.011Z,10.70
2019-02-12T15:47:23.045Z,7.37
2019-02-12T15:50:11.733Z,5.67
2019-02-12T15:52:59.662Z,5.67
2019-02-12T15:55:51.378Z,5.80
2019-02-12T15:58:37.110Z,7.40
2019-02-12T16:01:26.681Z,4.40
2019-02-12T16:04:14.597Z,8.47
2019-02-12T16:07:02.665Z,5.87
2019-02-12T16:09:50.554Z,6.50
2019-02-12T16:12:38.509Z,7.50
2019-02-12T16:15:26.436Z,7.03
2019-02-12T16:18:14.458Z,5.40
2019-02-12T16:21:02.013Z,7.97
2019-02-12T16:23:49.757Z,6.63
2019-02-12T16:26:37.418Z,6.13
2019-02-12T16:29:25.439Z,7.33
2019-02-12T16:32:13.085Z,9.60
2019-02-12T16:35:00.655Z,8.90
2019-02-12T16:37:48.542Z,11.17
2019-02-12T16:40:36.194Z,7.33
2019-02-12T16:43:24.049Z,7.73
2019-02-12T16:46:17.841Z,5.20
2019-02-12T16:49:05.425Z,9.90
2019-02-12T16:51:53.350Z,7.63
2019-02-12T16:54:41.401Z,6.80
2019-02-12T16:57:28.998Z,18.57
2019-02-12T17:00:18.175Z,11.47
2019-02-12T17:03:06.554Z,44.63
2019-02-12T17:05:54.678Z,101.07
2019-02-12T17:08:42.359Z,60.87
2019-02-12T17:11:29.858Z,50.70
2019-02-12T17:14:17.439Z,26.63
2019-02-12T17:17:05.489Z,15.83
2019-02-12T17:19:53.148Z,16.20
2019-02-12T17:22:40.818Z,9.33
2019-02-12T17:25:28.591Z,11.63
2019-02-12T17:28:16.657Z,8.10
2019-02-12T17:31:04.504Z,7.23
2019-02-12T17:33:52.568Z,14.03
2019-02-12T17:36:40.297Z,12.57
2019-02-12T17:39:28.230Z,8.83
2019-02-12T17:42:15.864Z,15.40
2019-02-12T17:45:06.094Z,10.47
2019-02-12T17:47:53.939Z,12.40
2019-02-12T17:50:41.985Z,11.73
2019-02-12T17:53:29.535Z,13.17
2019-02-12T17:56:24.561Z,17.13
2019-02-12T17:59:06.632Z,16.70
2019-02-12T18:01:54.446Z,13.27
2019-02-12T18:04:42.367Z,12.10
2019-02-12T18:07:29.974Z,10.47
2019-02-12T18:10:17.906Z,10.50
2019-02-12T18:13:06.033Z,9.53
2019-02-12T18:15:53.911Z,7.97
2019-02-12T18:18:41.830Z,7.27
2019-02-12T18:21:29.501Z,9.40
2019-02-12T18:24:17.491Z,13.13
2019-02-12T18:27:05.297Z,10.83
2019-02-12T18:29:52.874Z,11.97
2019-02-12T18:32:40.598Z,10.40
2019-02-12T18:35:28.474Z,11.03
2019-02-12T18:38:16.407Z,11.13
2019-02-12T18:41:04.539Z,12.30
2019-02-12T18:43:52.417Z,11.93
2019-02-12T18:46:40.285Z,10.67
2019-02-12T18:49:28.302Z,10.53
2019-02-12T18:52:15.978Z,13.97
2019-02-12T18:55:04.381Z,12.90
2019-02-12T18:57:52.128Z,13.27
2019-02-12T19:00:39.961Z,13.23
2019-02-12T19:03:27.626Z,11.20
2019-02-12T19:06:15.456Z,16.57
2019-02-12T19:09:06.580Z,12.90
2019-02-12T19:11:54.664Z,15.37
2019-02-12T19:14:42.680Z,16.30
2019-02-12T19:17:30.833Z,15.60
2019-02-12T19:20:18.759Z,16.33
2019-02-12T19:23:06.461Z,14.87
2019-02-12T19:25:54.085Z,13.30
2019-02-12T19:28:42.118Z,12.40
2019-02-12T19:31:30.025Z,20.03
2019-02-12T19:34:17.657Z,15.07
2019-02-12T19:37:05.526Z,17.07
2019-02-12T19:39:53.538Z,11.97
2019-02-12T19:42:41.422Z,19.23
2019-02-12T19:45:29.349Z,10.70
2019-02-12T19:48:17.085Z,15.63
2019-02-12T19:51:04.777Z,11.60
2019-02-12T19:53:53.086Z,11.40
2019-02-12T19:56:40.937Z,13.77
2019-02-12T19:59:28.709Z,15.00
2019-02-12T20:02:16.630Z,16.97
2019-02-12T20:05:07.528Z,15.23
2019-02-12T20:07:55.167Z,17.33
2019-02-12T20:10:42.826Z,14.63
2019-02-12T20:13:30.682Z,14.93
2019-02-12T20:16:18.754Z,15.40
2019-02-12T20:19:06.582Z,15.63
2019-02-12T20:21:54.267Z,16.47
2019-02-12T20:24:42.004Z,15.70
2019-02-12T20:27:35.780Z,21.03
2019-02-12T20:30:19.845Z,19.53
2019-02-12T20:33:07.338Z,23.07
2019-02-12T20:35:55.047Z,19.47
2019-02-12T20:38:42.692Z,21.40
2019-02-12T20:41:30.553Z,22.03
2019-02-12T20:44:18.434Z,18.97
2019-02-12T20:47:06.183Z,21.97
2019-02-12T20:49:53.810Z,18.57
2019-02-12T20:52:41.622Z,19.70
2019-02-12T20:55:29.496Z,16.37
2019-02-12T20:58:17.436Z,16.40
2019-02-12T21:01:05.329Z,17.30
2019-02-12T21:03:53.169Z,19.93
2019-02-12T21:06:40.924Z,21.73
2019-02-12T21:09:28.857Z,21.53
2019-02-12T21:12:16.881Z,17.43
2019-02-12T21:15:07.879Z,19.37
2019-02-12T21:17:55.998Z,19.80
2019-02-12T21:20:43.797Z,16.00
2019-02-12T21:23:31.687Z,16.50
2019-02-12T21:26:19.618Z,16.17
2019-02-12T21:29:07.248Z,17.67
2019-02-12T21:31:55.121Z,16.70
2019-02-12T21:34:43.021Z,16.00
2019-02-12T21:37:30.930Z,18.30
2019-02-12T21:40:23.990Z,16.53
2019-02-12T21:43:11.425Z,18.63
2019-02-12T21:45:59.301Z,19.20
2019-02-12T21:48:47.263Z,18.30
2019-02-12T21:51:35.268Z,17.63
2019-02-12T21:54:23.069Z,20.37
2019-02-12T21:57:10.709Z,18.97
2019-02-12T21:59:58.354Z,21.83
2019-02-12T22:02:46.245Z,21.83
2019-02-12T22:05:33.825Z,19.67
2019-02-12T22:08:21.745Z,17.93
2019-02-12T22:11:09.474Z,22.23
2019-02-12T22:13:57.585Z,24.27
2019-02-12T22:16:45.501Z,18.23
2019-02-12T22:19:33.176Z,18.67
2019-02-12T22:22:21.259Z,19.83
2019-02-12T22:25:10.106Z,20.30
2019-02-12T22:27:57.665Z,17.47
2019-02-12T22:30:45.266Z,22.20
2019-02-12T22:33:32.988Z,24.83
2019-02-12T22:36:20.953Z,24.57
2019-02-12T22:39:08.979Z,25.47
2019-02-12T22:41:56.705Z,21.57
2019-02-12T22:44:44.611Z,20.80
2019-02-12T22:47:32.744Z,21.00
2019-02-12T22:50:21.038Z,21.63
2019-02-12T22:53:09.034Z,20.97
2019-02-12T22:55:56.742Z,17.73
2019-02-12T22:58:44.714Z,19.60
2019-02-12T23:01:34.262Z,19.17
2019-02-12T23:04:22.516Z,19.23
2019-02-12T23:07:10.349Z,19.37
2019-02-12T23:09:58.137Z,17.63
2019-02-12T23:12:45.727Z,21.67
2019-02-12T23:15:33.421Z,22.37
2019-02-12T23:18:21.469Z,21.17
2019-02-12T23:21:09.681Z,19.87
2019-02-12T23:23:57.433Z,22.70
2019-02-12T23:26:45.480Z,21.33
2019-02-12T23:29:33.137Z,20.97
2019-02-12T23:32:21.164Z,23.23
2019-02-12T23:35:09.219Z,21.47
2019-02-12T23:37:56.766Z,21.20
2019-02-12T23:40:44.621Z,16.93
2019-02-12T23:43:32.722Z,21.30
2019-02-12T23:46:20.357Z,20.10
2019-02-12T23:49:08.333Z,23.23
2019-02-12T23:51:56.310Z,22.43
2019-02-12T23:54:44.582Z,21.90
2019-02-12T23:57:32.372Z,22.17
